createdAt,value
2023-04-22T00:01:07.917Z,9.51
2023-04-22T00:03:45.822Z,9.48
2023-04-22T00:06:18.780Z,9.45
2023-04-22T00:08:56.538Z,9.40
2023-04-22T00:11:29.242Z,9.30
2023-04-22T00:14:08.482Z,9.17
2023-04-22T00:16:46.995Z,9.00
2023-04-22T00:19:24.430Z,8.97
2023-04-22T00:21:54.614Z,8.94
2023-04-22T00:24:30.137Z,8.81
2023-04-22T00:27:12.619Z,8.74
2023-04-22T00:29:55.876Z,8.65
2023-04-22T00:32:35.461Z,8.61
2023-04-22T00:35:13.894Z,8.52
2023-04-22T00:37:55.241Z,8.47
2023-04-22T00:40:28.092Z,8.27
2023-04-22T00:43:08.600Z,8.11
2023-04-22T00:45:47.623Z,8.00
2023-04-22T00:48:30.877Z,7.82
2023-04-22T00:51:09.602Z,7.82
2023-04-22T00:53:51.089Z,7.77
2023-04-22T00:56:26.630Z,7.85
2023-04-22T00:59:13.796Z,7.82
2023-04-22T01:01:48.949Z,7.78
2023-04-22T01:04:31.139Z,7.87
2023-04-22T01:07:07.461Z,7.71
2023-04-22T01:09:44.349Z,7.59
2023-04-22T01:12:31.876Z,7.57
2023-04-22T01:15:05.228Z,7.52
2023-04-22T01:17:46.075Z,7.45
2023-04-22T01:20:26.823Z,7.45
2023-04-22T01:23:14.340Z,7.31
2023-04-22T01:25:53.718Z,7.26
2023-04-22T01:28:29.611Z,7.23
2023-04-22T01:30:59.805Z,7.18
2023-04-22T01:33:35.617Z,7.20
2023-04-22T01:36:18.449Z,7.11
2023-04-22T01:39:06.227Z,7.08
2023-04-22T01:41:39.826Z,7.05
2023-04-22T01:44:19.899Z,7.00
2023-04-22T01:47:05.384Z,6.76
2023-04-22T01:49:43.253Z,6.59
2023-04-22T01:52:16.302Z,6.54
2023-04-22T01:54:51.481Z,6.53
2023-04-22T01:57:31.989Z,6.33
2023-04-22T02:00:14.104Z,6.11
2023-04-22T02:02:54.915Z,6.20
2023-04-22T02:05:34.474Z,6.22
2023-04-22T02:08:12.359Z,6.23
2023-04-22T02:11:00.591Z,6.20
2023-04-22T02:13:47.671Z,6.13
2023-04-22T02:16:35.273Z,6.17
2023-04-22T02:19:12.235Z,6.19
2023-04-22T02:21:49.577Z,6.17
2023-04-22T02:24:30.180Z,6.43
2023-04-22T02:27:09.995Z,6.58
2023-04-22T02:29:46.153Z,6.59
2023-04-22T02:32:34.213Z,6.51
2023-04-22T02:35:27.177Z,6.56
2023-04-22T02:38:11.568Z,6.68
2023-04-22T02:40:53.609Z,6.69
2023-04-22T02:43:34.232Z,6.72
2023-04-22T02:46:18.620Z,6.60
2023-04-22T02:48:58.969Z,6.74
2023-04-22T02:51:39.156Z,6.66
2023-04-22T02:54:12.007Z,6.62
2023-04-22T02:56:44.735Z,6.52
2023-04-22T02:59:25.663Z,6.49
2023-04-22T03:02:00.507Z,6.66
2023-04-22T03:04:48.014Z,5.93
2023-04-22T03:07:24.959Z,6.28
2023-04-22T03:10:06.458Z,6.05
2023-04-22T03:12:49.119Z,6.21
2023-04-22T03:15:30.362Z,6.05
2023-04-22T03:18:05.977Z,5.98
2023-04-22T03:20:44.026Z,6.22
2023-04-22T03:23:33.713Z,6.42
2023-04-22T03:26:09.077Z,6.44
2023-04-22T03:28:51.946Z,6.57
2023-04-22T03:31:29.865Z,6.56
2023-04-22T03:34:13.198Z,6.51
2023-04-22T03:36:55.299Z,6.39
2023-04-22T03:39:32.757Z,6.27
2023-04-22T03:42:15.152Z,6.28
2023-04-22T03:45:01.407Z,6.29
2023-04-22T03:47:50.912Z,6.33
2023-04-22T03:50:30.621Z,6.28
2023-04-22T03:53:15.092Z,6.31
2023-04-22T03:55:55.378Z,6.33
2023-04-22T03:58:38.701Z,6.27
2023-04-22T04:01:24.688Z,6.12
2023-04-22T04:04:07.798Z,5.88
2023-04-22T04:07:03.887Z,5.91
2023-04-22T04:09:39.479Z,5.99
2023-04-22T04:12:26.526Z,6.06
2023-04-22T04:15:04.557Z,6.16
2023-04-22T04:17:46.205Z,6.43
2023-04-22T04:20:22.499Z,6.51
2023-04-22T04:23:08.081Z,6.47
2023-04-22T04:25:47.954Z,6.69
2023-04-22T04:28:32.381Z,6.83
2023-04-22T04:31:09.603Z,6.86
2023-04-22T04:33:46.780Z,7.08
2023-04-22T04:36:29.402Z,7.19
2023-04-22T04:39:18.989Z,7.03
2023-04-22T04:42:15.493Z,7.31
2023-04-22T04:45:04.492Z,7.42
2023-04-22T04:47:54.835Z,7.63
2023-04-22T04:50:44.512Z,8.01
2023-04-22T04:53:25.698Z,8.13
2023-04-22T04:55:58.523Z,8.56
2023-04-22T04:58:38.395Z,8.87
2023-04-22T05:01:41.454Z,9.05
2023-04-22T05:04:29.797Z,9.21
2023-04-22T05:07:13.439Z,9.33
2023-04-22T05:10:00.762Z,9.57
2023-04-22T05:12:41.374Z,9.70
2023-04-22T05:15:29.316Z,9.80
2023-04-22T05:18:07.929Z,9.97
2023-04-22T05:20:51.243Z,10.28
2023-04-22T05:23:31.430Z,10.68
2023-04-22T05:26:09.268Z,11.26
2023-04-22T05:28:54.003Z,11.68
2023-04-22T05:31:36.634Z,12.09
2023-04-22T05:34:16.623Z,12.38
2023-04-22T05:37:00.814Z,12.74
2023-04-22T05:39:39.834Z,13.12
2023-04-22T05:42:20.579Z,13.64
2023-04-22T05:45:03.091Z,13.88
2023-04-22T05:47:40.940Z,14.10
2023-04-22T05:50:22.808Z,14.47
2023-04-22T05:53:12.741Z,14.81
2023-04-22T05:55:49.461Z,15.18
2023-04-22T05:58:24.342Z,15.57
2023-04-22T06:01:07.333Z,15.63
2023-04-22T06:04:12.665Z,16.08
2023-04-22T06:06:48.198Z,16.35
2023-04-22T06:09:31.423Z,16.31
2023-04-22T06:12:02.256Z,16.44
2023-04-22T06:14:41.215Z,16.81
2023-04-22T06:17:17.396Z,17.06
2023-04-22T06:19:53.464Z,17.21
2023-04-22T06:22:30.590Z,17.32
2023-04-22T06:25:05.939Z,17.71
2023-04-22T06:27:38.682Z,17.21
2023-04-22T06:30:19.798Z,17.81
2023-04-22T06:32:55.544Z,18.10
2023-04-22T06:35:36.430Z,18.23
2023-04-22T06:38:20.619Z,18.58
2023-04-22T06:41:13.676Z,19.01
2023-04-22T06:43:57.342Z,18.90
2023-04-22T06:46:59.983Z,19.26
2023-04-22T06:49:56.495Z,19.29
2023-04-22T06:52:34.487Z,19.50
2023-04-22T06:55:08.607Z,19.40
2023-04-22T06:57:46.714Z,19.90
2023-04-22T07:00:40.458Z,20.05
2023-04-22T07:03:21.413Z,20.33
2023-04-22T07:06:06.429Z,20.72
2023-04-22T07:08:47.012Z,20.69
2023-04-22T07:11:24.260Z,20.82
2023-04-22T07:14:08.613Z,20.44
2023-04-22T07:16:42.934Z,20.71
2023-04-22T07:19:23.968Z,20.72
2023-04-22T07:22:05.031Z,20.86
2023-04-22T07:24:38.673Z,20.91
2023-04-22T07:27:07.876Z,21.14
2023-04-22T07:29:47.821Z,21.08
2023-04-22T07:32:26.264Z,21.55
2023-04-22T07:35:07.191Z,21.89
2023-04-22T07:37:45.953Z,21.86
2023-04-22T07:40:24.244Z,21.85
2023-04-22T07:43:05.087Z,21.72
2023-04-22T07:45:43.978Z,22.02
2023-04-22T07:48:27.510Z,21.40
2023-04-22T07:51:02.768Z,21.68
2023-04-22T07:53:46.251Z,21.73
2023-04-22T07:56:21.425Z,22.30
2023-04-22T07:58:56.585Z,21.91
2023-04-22T08:01:32.191Z,21.23
2023-04-22T08:04:11.086Z,21.53
2023-04-22T08:06:52.186Z,21.54
2023-04-22T08:09:27.426Z,21.79
2023-04-22T08:12:08.696Z,21.26
2023-04-22T08:14:49.935Z,21.00
2023-04-22T08:17:33.812Z,21.35
2023-04-22T08:20:08.190Z,21.76
2023-04-22T08:22:44.565Z,22.06
2023-04-22T08:25:17.438Z,22.32
2023-04-22T08:27:55.692Z,21.63
2023-04-22T08:30:46.454Z,21.75
2023-04-22T08:33:19.441Z,22.06
2023-04-22T08:35:59.696Z,22.19
2023-04-22T08:38:32.099Z,22.36
2023-04-22T08:41:03.826Z,22.22
2023-04-22T08:43:39.427Z,22.57
2023-04-22T08:46:17.897Z,22.72
2023-04-22T08:49:04.117Z,22.99
2023-04-22T08:51:40.846Z,23.16
2023-04-22T08:54:19.626Z,23.36
2023-04-22T08:57:03.198Z,23.47
2023-04-22T08:59:42.733Z,23.29
2023-04-22T09:02:19.505Z,22.67
2023-04-22T09:05:03.713Z,22.78
2023-04-22T09:07:42.231Z,22.89
2023-04-22T09:10:22.316Z,22.71
2023-04-22T09:12:58.726Z,22.49
2023-04-22T09:15:35.990Z,22.86
2023-04-22T09:18:05.671Z,23.21
2023-04-22T09:20:35.404Z,22.99
2023-04-22T09:23:10.546Z,22.78
2023-04-22T09:25:47.884Z,22.74
2023-04-22T09:28:23.528Z,22.91
2023-04-22T09:31:00.540Z,23.28
2023-04-22T09:33:31.492Z,22.74
2023-04-22T09:36:15.020Z,22.75
2023-04-22T09:39:04.579Z,22.75
2023-04-22T09:41:46.036Z,22.95
2023-04-22T09:44:20.935Z,23.04
2023-04-22T09:46:57.634Z,22.92
2023-04-22T09:49:31.283Z,22.87
2023-04-22T09:52:07.418Z,22.88
2023-04-22T09:54:55.040Z,22.59
2023-04-22T09:57:29.685Z,22.42
2023-04-22T10:00:10.542Z,22.78
2023-04-22T10:02:46.703Z,23.47
2023-04-22T10:05:30.780Z,23.01
2023-04-22T10:08:09.690Z,23.17
2023-04-22T10:10:40.562Z,22.53
2023-04-22T10:13:13.666Z,22.88
2023-04-22T10:15:52.637Z,23.11
2023-04-22T10:18:33.994Z,23.53
2023-04-22T10:21:13.142Z,22.99
2023-04-22T10:23:53.407Z,22.41
2023-04-22T10:27:10.841Z,22.72
2023-04-22T10:29:45.922Z,22.52
2023-04-22T10:32:27.973Z,22.37
2023-04-22T10:35:14.485Z,22.49
2023-04-22T10:37:49.753Z,22.65
2023-04-22T10:40:27.787Z,22.43
2023-04-22T10:43:04.715Z,22.26
2023-04-22T10:45:40.268Z,22.05
2023-04-22T10:48:13.276Z,21.84
2023-04-22T10:50:48.102Z,21.83
2023-04-22T10:53:40.810Z,22.43
2023-04-22T10:56:19.514Z,23.14
2023-04-22T10:59:06.201Z,23.55
2023-04-22T11:01:50.121Z,24.11
2023-04-22T11:04:30.734Z,23.56
2023-04-22T11:07:20.728Z,23.43
2023-04-22T11:10:01.146Z,22.57
2023-04-22T11:12:43.670Z,22.29
2023-04-22T11:15:26.339Z,22.07
2023-04-22T11:18:02.185Z,21.91
2023-04-22T11:20:42.215Z,21.45
2023-04-22T11:23:23.681Z,21.51
2023-04-22T11:26:08.946Z,21.34
2023-04-22T11:28:50.102Z,21.33
2023-04-22T11:31:30.845Z,20.87
2023-04-22T11:34:11.292Z,21.05
2023-04-22T11:36:52.753Z,20.98
2023-04-22T11:39:46.565Z,21.29
2023-04-22T11:42:26.290Z,21.58
2023-04-22T11:45:04.763Z,21.83
2023-04-22T11:47:46.518Z,21.89
2023-04-22T11:50:27.464Z,22.10
2023-04-22T11:53:18.189Z,22.35
2023-04-22T11:55:53.625Z,23.01
2023-04-22T11:58:37.836Z,23.47
2023-04-22T12:01:21.138Z,23.61
2023-04-22T12:04:04.148Z,23.24
2023-04-22T12:06:41.291Z,22.05
2023-04-22T12:09:14.148Z,21.77
2023-04-22T12:12:01.419Z,21.85
2023-04-22T12:14:45.835Z,21.53
2023-04-22T12:17:27.083Z,21.61
2023-04-22T12:20:05.457Z,21.55
2023-04-22T12:22:43.237Z,21.47
2023-04-22T12:25:22.936Z,21.53
2023-04-22T12:28:03.855Z,21.41
2023-04-22T12:30:45.616Z,21.77
2023-04-22T12:33:16.471Z,22.55
2023-04-22T12:36:01.985Z,23.41
2023-04-22T12:38:32.083Z,24.05
2023-04-22T12:41:12.427Z,24.64
2023-04-22T12:43:50.205Z,24.99
2023-04-22T12:46:34.037Z,25.11
2023-04-22T12:49:09.390Z,25.70
2023-04-22T12:51:50.041Z,25.96
2023-04-22T12:54:24.062Z,26.43
2023-04-22T12:56:59.724Z,26.26
2023-04-22T12:59:40.930Z,26.04
2023-04-22T13:02:24.702Z,25.55
2023-04-22T13:04:56.967Z,25.44
2023-04-22T13:07:31.585Z,25.11
2023-04-22T13:10:08.487Z,25.45
2023-04-22T13:12:51.832Z,24.78
2023-04-22T13:15:30.158Z,24.53
2023-04-22T13:18:08.030Z,23.51
2023-04-22T13:20:45.704Z,23.49
2023-04-22T13:23:22.098Z,23.53
2023-04-22T13:26:05.393Z,23.37
2023-04-22T13:28:38.146Z,23.02
2023-04-22T13:31:16.417Z,22.99
2023-04-22T13:33:53.915Z,23.14
2023-04-22T13:36:29.374Z,23.20
2023-04-22T13:39:03.605Z,22.90
2023-04-22T13:41:41.379Z,22.87
2023-04-22T13:44:27.704Z,23.11
2023-04-22T13:47:05.767Z,22.46
2023-04-22T13:49:32.864Z,22.41
2023-04-22T13:52:08.492Z,22.49
2023-04-22T13:54:59.687Z,22.26
2023-04-22T13:57:42.291Z,22.39
2023-04-22T14:00:22.828Z,22.41
2023-04-22T14:03:00.487Z,22.33
2023-04-22T14:05:38.759Z,22.18
2023-04-22T14:08:14.339Z,22.15
2023-04-22T14:10:46.662Z,22.24
2023-04-22T14:13:19.804Z,22.19
2023-04-22T14:16:12.764Z,22.05
2023-04-22T14:18:51.493Z,21.93
2023-04-22T14:21:28.115Z,21.97
2023-04-22T14:24:07.394Z,22.06
2023-04-22T14:26:45.064Z,22.66
2023-04-22T14:29:20.555Z,23.16
2023-04-22T14:32:03.751Z,23.68
2023-04-22T14:34:42.520Z,23.71
2023-04-22T14:37:21.875Z,23.39
2023-04-22T14:40:01.608Z,23.34
2023-04-22T14:42:36.544Z,23.17
2023-04-22T14:45:22.837Z,23.50
2023-04-22T14:47:58.425Z,24.01
2023-04-22T14:50:35.584Z,24.64
2023-04-22T14:53:11.458Z,23.74
2023-04-22T14:55:48.903Z,23.87
2023-04-22T14:58:27.194Z,24.32
2023-04-22T15:01:00.348Z,24.76
2023-04-22T15:03:36.384Z,25.09
2023-04-22T15:06:11.693Z,24.93
2023-04-22T15:08:51.937Z,24.46
2023-04-22T15:11:38.015Z,24.17
2023-04-22T15:14:18.382Z,23.78
2023-04-22T15:16:58.451Z,23.69
2023-04-22T15:19:37.420Z,23.54
2023-04-22T15:22:35.098Z,23.46
2023-04-22T15:25:16.769Z,22.89
2023-04-22T15:28:00.848Z,22.82
2023-04-22T15:30:44.495Z,22.80
2023-04-22T15:33:24.782Z,22.39
2023-04-22T15:36:05.363Z,22.56
2023-04-22T15:38:40.102Z,22.87
2023-04-22T15:41:18.950Z,22.93
2023-04-22T15:43:55.459Z,22.52
2023-04-22T15:46:40.293Z,22.18
2023-04-22T15:49:24.391Z,21.97
2023-04-22T15:52:02.595Z,22.00
2023-04-22T15:54:38.453Z,21.99
2023-04-22T15:57:17.578Z,21.88
2023-04-22T15:59:51.465Z,21.80
2023-04-22T16:02:34.195Z,21.64
2023-04-22T16:05:12.633Z,21.34
2023-04-22T16:07:55.905Z,21.20
2023-04-22T16:10:33.396Z,20.86
2023-04-22T16:13:06.228Z,21.00
2023-04-22T16:15:45.529Z,20.84
2023-04-22T16:18:26.680Z,20.66
2023-04-22T16:21:00.690Z,20.65
2023-04-22T16:23:38.456Z,20.55
2023-04-22T16:26:22.285Z,20.39
2023-04-22T16:29:13.208Z,20.26
2023-04-22T16:31:51.493Z,20.08
2023-04-22T16:34:21.722Z,20.39
2023-04-22T16:36:56.937Z,21.18
2023-04-22T16:39:35.625Z,22.28
2023-04-22T16:42:21.881Z,23.18
2023-04-22T16:45:02.395Z,23.63
2023-04-22T16:47:38.207Z,23.79
2023-04-22T16:50:17.368Z,23.81
2023-04-22T16:52:53.834Z,23.57
2023-04-22T16:55:32.825Z,23.32
2023-04-22T16:58:17.357Z,22.86
2023-04-22T17:00:55.437Z,21.85
2023-04-22T17:03:30.795Z,21.13
2023-04-22T17:06:08.763Z,20.30
2023-04-22T17:08:44.471Z,19.57
2023-04-22T17:11:20.489Z,19.18
2023-04-22T17:13:58.311Z,18.68
2023-04-22T17:16:41.791Z,18.21
2023-04-22T17:19:32.804Z,17.86
2023-04-22T17:22:09.501Z,17.66
2023-04-22T17:24:53.947Z,17.09
2023-04-22T17:27:31.677Z,16.79
2023-04-22T17:30:18.497Z,16.62
2023-04-22T17:32:59.865Z,16.40
2023-04-22T17:35:40.561Z,16.49
2023-04-22T17:38:23.757Z,16.31
2023-04-22T17:41:05.306Z,16.07
2023-04-22T17:43:43.741Z,15.75
2023-04-22T17:46:25.158Z,15.64
2023-04-22T17:49:05.939Z,15.44
2023-04-22T17:51:47.464Z,15.34
2023-04-22T17:54:27.864Z,15.28
2023-04-22T17:57:09.481Z,15.13
2023-04-22T17:59:47.197Z,15.02
2023-04-22T18:02:18.968Z,14.81
2023-04-22T18:04:59.806Z,14.72
2023-04-22T18:07:45.290Z,14.55
2023-04-22T18:10:32.252Z,14.41
2023-04-22T18:13:11.808Z,14.32
2023-04-22T18:15:50.077Z,14.20
2023-04-22T18:18:33.624Z,13.94
2023-04-22T18:21:11.366Z,13.72
2023-04-22T18:23:47.312Z,13.69
2023-04-22T18:26:52.405Z,13.45
2023-04-22T18:29:41.550Z,13.06
2023-04-22T18:32:23.818Z,12.82
2023-04-22T18:35:21.067Z,12.46
2023-04-22T18:38:05.420Z,12.27
2023-04-22T18:40:41.430Z,12.29
2023-04-22T18:43:14.014Z,12.23
2023-04-22T18:45:51.791Z,12.13
2023-04-22T18:48:33.126Z,12.02
2023-04-22T18:51:13.666Z,11.99
2023-04-22T18:53:53.721Z,11.92
2023-04-22T18:56:36.469Z,12.03
2023-04-22T18:59:14.866Z,12.18
2023-04-22T19:01:55.892Z,12.21
2023-04-22T19:04:34.618Z,12.23
2023-04-22T19:07:16.628Z,12.12
2023-04-22T19:09:47.447Z,12.09
2023-04-22T19:12:28.233Z,12.08
2023-04-22T19:15:08.906Z,12.12
2023-04-22T19:17:49.786Z,12.08
2023-04-22T19:20:24.872Z,12.10
2023-04-22T19:23:04.292Z,12.11
2023-04-22T19:25:45.086Z,11.94
2023-04-22T19:28:26.108Z,11.83
2023-04-22T19:31:07.441Z,11.71
2023-04-22T19:33:40.307Z,11.56
2023-04-22T19:36:12.517Z,11.56
2023-04-22T19:38:46.521Z,11.50
2023-04-22T19:41:21.902Z,11.39
2023-04-22T19:43:59.823Z,11.27
2023-04-22T19:46:43.759Z,11.27
2023-04-22T19:49:17.706Z,11.14
2023-04-22T19:51:56.823Z,11.18
2023-04-22T19:54:39.645Z,11.16
2023-04-22T19:57:15.413Z,11.22
2023-04-22T19:59:51.120Z,11.22
2023-04-22T20:02:24.033Z,11.19
2023-04-22T20:05:07.852Z,11.15
2023-04-22T20:07:51.400Z,11.18
2023-04-22T20:10:29.373Z,11.06
2023-04-22T20:13:04.015Z,11.15
2023-04-22T20:15:45.784Z,11.11
2023-04-22T20:18:17.958Z,11.15
2023-04-22T20:20:57.345Z,11.16
2023-04-22T20:23:34.908Z,11.19
2023-04-22T20:26:10.697Z,11.18
2023-04-22T20:28:58.093Z,11.22
2023-04-22T20:31:38.304Z,11.27
2023-04-22T20:34:15.712Z,11.31
2023-04-22T20:36:56.081Z,11.28
2023-04-22T20:39:37.748Z,11.31
2023-04-22T20:42:16.954Z,11.34
2023-04-22T20:44:57.657Z,11.36
2023-04-22T20:47:32.676Z,11.37
2023-04-22T20:50:11.098Z,11.28
2023-04-22T20:52:54.528Z,11.30
2023-04-22T20:55:31.643Z,11.22
2023-04-22T20:58:18.428Z,11.16
2023-04-22T21:00:56.009Z,11.02
2023-04-22T21:03:40.041Z,10.96
2023-04-22T21:06:13.073Z,10.84
2023-04-22T21:08:55.310Z,10.68
2023-04-22T21:11:38.627Z,10.53
2023-04-22T21:14:21.934Z,10.43
2023-04-22T21:17:05.324Z,10.34
2023-04-22T21:19:48.289Z,10.24
2023-04-22T21:22:30.530Z,10.03
2023-04-22T21:25:16.748Z,9.83
2023-04-22T21:27:55.600Z,9.65
2023-04-22T21:30:35.218Z,9.58
2023-04-22T21:33:13.552Z,9.59
2023-04-22T21:35:49.370Z,9.57
2023-04-22T21:38:30.845Z,9.48
2023-04-22T21:41:12.086Z,9.37
2023-04-22T21:43:47.431Z,9.31
2023-04-22T21:46:24.439Z,9.29
2023-04-22T21:49:05.496Z,9.26
2023-04-22T21:51:46.877Z,9.11
2023-04-22T21:54:33.701Z,9.08
2023-04-22T21:57:09.138Z,9.05
2023-04-22T21:59:52.214Z,8.95
2023-04-22T22:02:29.141Z,8.91
2023-04-22T22:05:07.275Z,8.80
2023-04-22T22:07:45.777Z,8.77
2023-04-22T22:10:25.165Z,8.73
2023-04-22T22:13:03.557Z,8.72
2023-04-22T22:15:49.523Z,8.62
2023-04-22T22:18:28.334Z,8.54
2023-04-22T22:21:06.020Z,8.41
2023-04-22T22:23:51.343Z,8.26
2023-04-22T22:26:36.555Z,8.24
2023-04-22T22:29:18.604Z,8.27
2023-04-22T22:32:07.104Z,8.21
2023-04-22T22:34:43.983Z,8.25
2023-04-22T22:37:22.492Z,8.15
2023-04-22T22:40:19.273Z,8.12
2023-04-22T22:42:55.413Z,8.06
2023-04-22T22:45:34.501Z,8.00
2023-04-22T22:48:15.000Z,7.99
2023-04-22T22:50:53.303Z,8.05
2023-04-22T22:53:27.723Z,8.13
2023-04-22T22:56:06.683Z,8.26
2023-04-22T22:58:45.991Z,8.21
2023-04-22T23:01:30.866Z,8.17
2023-04-22T23:04:16.045Z,8.03
2023-04-22T23:06:55.347Z,7.98
2023-04-22T23:09:32.913Z,7.91
2023-04-22T23:12:19.489Z,7.90
2023-04-22T23:15:02.922Z,7.68
2023-04-22T23:17:52.742Z,7.86
2023-04-22T23:20:28.406Z,7.64
2023-04-22T23:23:13.123Z,7.76
2023-04-22T23:25:48.819Z,7.62
2023-04-22T23:28:29.539Z,7.72
2023-04-22T23:31:11.686Z,7.61
2023-04-22T23:33:50.850Z,7.55
2023-04-22T23:36:36.776Z,7.52
2023-04-22T23:39:24.056Z,7.36
2023-04-22T23:42:07.776Z,7.26
2023-04-22T23:44:51.869Z,7.23
2023-04-22T23:47:35.128Z,7.18
2023-04-22T23:50:21.749Z,7.06
2023-04-22T23:52:59.675Z,7.06
2023-04-22T23:55:43.682Z,7.02
2023-04-22T23:58:19.055Z,7.01
